Time;durP1;ratioP1;P1;durP2;ratioP2;P2;SDS_P1;SDS_P2;PMS_P1;PMS_P2;Temp;Humidity;BMP_temperature;BMP_pressure;BME280_temperature;BME280_humidity;BME280_pressure;Samples;Min_cycle;Max_cycle;Signal;HPM_P1;HPM_P2
2023/08/28 00:01:48;;;;;;;1.10;0.80;;;;;;;;;;5080233;28;20482;-82
2023/08/28 00:04:14;;;;;;;2.05;0.77;;;;;;;;;;5083837;28;20029;-83
2023/08/28 00:06:39;;;;;;;2.20;0.90;;;;;;;;;;5075077;28;20029;-82
2023/08/28 00:09:05;;;;;;;1.50;0.80;;;;;;;;;;5072243;28;20110;-81
2023/08/28 00:11:30;;;;;;;1.45;0.82;;;;;;;;;;5076227;28;20488;-82
2023/08/28 00:13:56;;;;;;;4.35;0.82;;;;;;;;;;5082643;28;20090;-82
2023/08/28 00:16:21;;;;;;;1.27;1.05;;;;;;;;;;5084494;28;20028;-81
2023/08/28 00:18:47;;;;;;;1.95;0.80;;;;;;;;;;5081881;28;20036;-84
2023/08/28 00:21:12;;;;;;;1.15;0.80;;;;;;;;;;5084048;28;20059;-83
2023/08/28 00:23:38;;;;;;;1.10;0.60;;;;;;;;;;5080717;28;20067;-82
2023/08/28 00:26:03;;;;;;;2.30;0.80;;;;;;;;;;5086905;28;20613;-82
2023/08/28 00:28:29;;;;;;;3.17;0.75;;;;;;;;;;5081053;28;20106;-81
2023/08/28 00:30:54;;;;;;;1.52;0.80;;;;;;;;;;5085985;28;20067;-82
2023/08/28 00:33:20;;;;;;;1.20;0.80;;;;;;;;;;5093172;28;20033;-81
2023/08/28 00:35:45;;;;;;;1.65;0.90;;;;;;;;;;5087958;28;20123;-83
2023/08/28 00:38:11;;;;;;;1.10;0.77;;;;;;;;;;5088915;28;20450;-83
2023/08/28 00:40:40;;;;;;;1.45;0.80;;;;;;;;;;5089831;28;20374;-83
2023/08/28 00:43:06;;;;;;;1.20;0.88;;;;;;;;;;5088932;28;20066;-81
2023/08/28 00:45:33;;;;;;;1.40;1.02;;;;;;;;;;5091939;28;20055;-82
2023/08/28 00:47:59;;;;;;;2.28;0.80;;;;;;;;;;5086930;28;20473;-82
2023/08/28 00:50:25;;;;;;;2.25;0.80;;;;;;;;;;5091679;28;20024;-81
2023/08/28 00:52:50;;;;;;;1.15;0.70;;;;;;;;;;5089864;28;20028;-82
2023/08/28 00:55:16;;;;;;;1.02;0.80;;;;;;;;;;5083013;28;20088;-83
2023/08/28 00:57:44;;;;;;;0.88;0.77;;;;;;;;;;5079022;28;20047;-83
2023/08/28 01:00:10;;;;;;;1.67;0.90;;;;;;;;;;5084022;28;20552;-83
2023/08/28 01:02:38;;;;;;;1.45;0.85;;;;;;;;;;5091725;28;20036;-81
2023/08/28 01:05:05;;;;;;;1.20;0.80;;;;;;;;;;5082311;28;20024;-81
2023/08/28 01:07:39;;;;;;;1.42;1.00;;;;;;;;;;5077835;28;20451;-81
2023/08/28 01:10:13;;;;;;;1.65;0.90;;;;;;;;;;5094576;28;20029;-81
2023/08/28 01:12:50;;;;;;;1.02;0.80;;;;;;;;;;5079332;28;20037;-81
2023/08/28 01:15:24;;;;;;;1.50;0.95;;;;;;;;;;5082109;28;20150;-81
2023/08/28 01:18:00;;;;;;;0.82;0.68;;;;;;;;;;5091154;28;20059;-85
2023/08/28 01:20:28;;;;;;;0.85;0.80;;;;;;;;;;5082748;28;20040;-82
2023/08/28 01:22:57;;;;;;;1.88;0.90;;;;;;;;;;5090192;28;20470;-83
2023/08/28 01:25:24;;;;;;;1.98;0.90;;;;;;;;;;5090222;28;20060;-83
2023/08/28 01:27:51;;;;;;;1.13;0.80;;;;;;;;;;5078000;28;20482;-84
2023/08/28 01:30:18;;;;;;;1.65;0.73;;;;;;;;;;5082342;28;20415;-83
2023/08/28 01:32:45;;;;;;;2.55;0.95;;;;;;;;;;5078870;28;20469;-84
2023/08/28 01:35:16;;;;;;;1.02;0.80;;;;;;;;;;5083316;28;20051;-82
2023/08/28 01:37:56;;;;;;;1.00;0.80;;;;;;;;;;5097865;28;20040;-82
2023/08/28 01:40:30;;;;;;;1.25;0.80;;;;;;;;;;5077870;28;20419;-82
2023/08/28 01:42:56;;;;;;;2.35;0.90;;;;;;;;;;5091300;28;20046;-82
2023/08/28 01:45:22;;;;;;;0.80;0.80;;;;;;;;;;5084933;28;20027;-82
2023/08/28 01:47:49;;;;;;;1.17;0.88;;;;;;;;;;5089155;28;20036;-82
2023/08/28 01:50:14;;;;;;;2.00;1.00;;;;;;;;;;5089394;28;20028;-82
2023/08/28 01:52:40;;;;;;;1.55;1.00;;;;;;;;;;5058056;28;20025;-83
2023/08/28 01:55:06;;;;;;;1.35;0.80;;;;;;;;;;5089025;28;20073;-83
2023/08/28 01:57:31;;;;;;;1.20;0.85;;;;;;;;;;5088891;28;20036;-82
2023/08/28 01:59:57;;;;;;;2.22;0.90;;;;;;;;;;5071080;28;20035;-82
2023/08/28 02:02:23;;;;;;;1.25;0.90;;;;;;;;;;5087788;28;20491;-81
2023/08/28 02:04:48;;;;;;;1.85;1.02;;;;;;;;;;5077201;28;20024;-81
2023/08/28 02:07:14;;;;;;;3.10;1.00;;;;;;;;;;5061308;28;20033;-82
2023/08/28 02:09:40;;;;;;;1.13;0.77;;;;;;;;;;5089332;28;20546;-82
2023/08/28 02:12:06;;;;;;;1.95;0.90;;;;;;;;;;5088044;28;20060;-83
2023/08/28 02:14:32;;;;;;;1.88;0.95;;;;;;;;;;5090862;28;20016;-83
2023/08/28 02:16:57;;;;;;;1.35;0.80;;;;;;;;;;5078223;28;20032;-83
2023/08/28 02:19:23;;;;;;;1.45;0.88;;;;;;;;;;5080886;28;20040;-81
2023/08/28 02:21:48;;;;;;;1.15;0.90;;;;;;;;;;5086323;28;20028;-81
2023/08/28 02:24:14;;;;;;;1.50;0.98;;;;;;;;;;5081898;28;20032;-81
2023/08/28 02:26:39;;;;;;;0.90;0.80;;;;;;;;;;5080640;28;20028;-82
2023/08/28 02:29:05;;;;;;;4.90;0.90;;;;;;;;;;5072641;28;20020;-83
2023/08/28 02:31:31;;;;;;;2.97;1.00;;;;;;;;;;5085881;28;20435;-83
2023/08/28 02:33:57;;;;;;;1.73;1.10;;;;;;;;;;5082361;28;20028;-82
2023/08/28 02:36:22;;;;;;;1.80;0.90;;;;;;;;;;5083147;28;20028;-82
2023/08/28 02:38:49;;;;;;;3.28;0.93;;;;;;;;;;5075671;28;20021;-81
2023/08/28 02:41:15;;;;;;;3.72;1.13;;;;;;;;;;5074079;28;20474;-81
2023/08/28 02:43:42;;;;;;;1.00;0.90;;;;;;;;;;5090307;28;20024;-81
2023/08/28 02:46:08;;;;;;;1.08;0.85;;;;;;;;;;5099091;28;20583;-82
2023/08/28 02:48:33;;;;;;;3.08;1.00;;;;;;;;;;5078607;28;20024;-83
2023/08/28 02:50:59;;;;;;;0.90;0.80;;;;;;;;;;5087076;28;20060;-83
2023/08/28 02:53:25;;;;;;;1.60;1.10;;;;;;;;;;5078252;28;20103;-81
2023/08/28 02:56:11;;;;;;;2.30;1.35;;;;;;;;;;5082591;28;20023;-82
2023/08/28 02:58:37;;;;;;;1.20;0.90;;;;;;;;;;5087070;28;20028;-81
2023/08/28 03:01:02;;;;;;;1.85;1.10;;;;;;;;;;5086467;28;20086;-82
2023/08/28 03:03:28;;;;;;;1.88;1.00;;;;;;;;;;5080745;28;20032;-81
2023/08/28 03:05:53;;;;;;;1.13;0.90;;;;;;;;;;5075791;28;20106;-82
2023/08/28 03:08:20;;;;;;;1.65;1.10;;;;;;;;;;5093995;28;20039;-83
2023/08/28 03:10:46;;;;;;;4.53;1.20;;;;;;;;;;5098933;28;20050;-83
2023/08/28 03:13:11;;;;;;;1.77;1.00;;;;;;;;;;5084178;28;20452;-83
2023/08/28 03:15:37;;;;;;;1.50;0.90;;;;;;;;;;5088430;28;20020;-82
2023/08/28 03:18:02;;;;;;;1.77;0.80;;;;;;;;;;5082588;28;20027;-81
2023/08/28 03:20:28;;;;;;;1.80;1.00;;;;;;;;;;5081389;28;20043;-82
2023/08/28 03:22:55;;;;;;;2.05;1.10;;;;;;;;;;5081363;28;20039;-81
2023/08/28 03:25:20;;;;;;;0.82;0.77;;;;;;;;;;5078207;28;20024;-82
2023/08/28 03:27:46;;;;;;;1.80;0.90;;;;;;;;;;5072244;28;20661;-82
2023/08/28 03:30:14;;;;;;;1.55;0.90;;;;;;;;;;5083517;28;20040;-82
2023/08/28 03:32:39;;;;;;;1.20;0.90;;;;;;;;;;5089132;28;20051;-83
2023/08/28 03:35:05;;;;;;;2.50;0.80;;;;;;;;;;5078930;28;20059;-81
2023/08/28 03:37:30;;;;;;;1.50;0.80;;;;;;;;;;5080655;28;20493;-82
2023/08/28 03:39:56;;;;;;;1.80;0.70;;;;;;;;;;5087898;28;20051;-81
2023/08/28 03:42:21;;;;;;;1.20;0.75;;;;;;;;;;5077971;28;20040;-82
2023/08/28 03:44:47;;;;;;;3.28;0.90;;;;;;;;;;5082067;28;20076;-82
2023/08/28 03:47:12;;;;;;;3.45;0.90;;;;;;;;;;5094129;28;20028;-82
2023/08/28 03:49:38;;;;;;;1.52;0.85;;;;;;;;;;5078048;28;20086;-82
2023/08/28 03:52:04;;;;;;;2.55;0.98;;;;;;;;;;5093093;28;20052;-83
2023/08/28 03:54:29;;;;;;;1.73;0.70;;;;;;;;;;5083873;28;20028;-81
2023/08/28 03:56:57;;;;;;;1.00;0.70;;;;;;;;;;5087463;28;20549;-82
2023/08/28 03:59:23;;;;;;;3.38;0.95;;;;;;;;;;5090300;28;20120;-82
2023/08/28 04:01:49;;;;;;;2.28;1.08;;;;;;;;;;5090476;28;20111;-82
2023/08/28 04:04:16;;;;;;;2.38;0.90;;;;;;;;;;5079929;28;20132;-83
2023/08/28 04:06:42;;;;;;;1.73;0.95;;;;;;;;;;5081402;28;20021;-82
2023/08/28 04:09:08;;;;;;;3.40;1.23;;;;;;;;;;5085722;28;20105;-82
2023/08/28 04:11:33;;;;;;;1.40;0.90;;;;;;;;;;5105707;28;20546;-82
2023/08/28 04:14:01;;;;;;;1.42;0.80;;;;;;;;;;5060908;28;20038;-82
2023/08/28 04:16:27;;;;;;;1.88;1.05;;;;;;;;;;5080780;28;20031;-82
2023/08/28 04:18:52;;;;;;;1.98;1.05;;;;;;;;;;5090254;28;20436;-81
2023/08/28 04:21:18;;;;;;;2.58;1.33;;;;;;;;;;5089836;28;20063;-82
2023/08/28 04:23:43;;;;;;;2.05;1.20;;;;;;;;;;5080650;28;20474;-82
2023/08/28 04:26:09;;;;;;;2.58;1.40;;;;;;;;;;5081041;28;20037;-83
2023/08/28 04:28:34;;;;;;;5.90;1.60;;;;;;;;;;5089029;28;20448;-81
2023/08/28 04:31:00;;;;;;;1.50;1.20;;;;;;;;;;5088849;28;20060;-81
2023/08/28 04:33:26;;;;;;;3.75;1.60;;;;;;;;;;5084017;28;20042;-82
2023/08/28 04:35:51;;;;;;;1.92;1.30;;;;;;;;;;5083744;28;20103;-81
2023/08/28 04:38:17;;;;;;;2.58;1.45;;;;;;;;;;5092761;28;20036;-82
2023/08/28 04:40:42;;;;;;;2.97;1.67;;;;;;;;;;5087859;28;20098;-83
2023/08/28 04:43:08;;;;;;;2.55;1.38;;;;;;;;;;5084769;28;20496;-82
2023/08/28 04:45:34;;;;;;;4.13;1.58;;;;;;;;;;5085878;28;20033;-82
2023/08/28 04:47:59;;;;;;;4.03;1.65;;;;;;;;;;5085171;28;20447;-82
2023/08/28 04:50:25;;;;;;;2.67;1.60;;;;;;;;;;5087042;28;20028;-81
2023/08/28 04:52:50;;;;;;;2.70;1.50;;;;;;;;;;5087368;28;20093;-82
2023/08/28 04:55:15;;;;;;;2.22;1.65;;;;;;;;;;5088873;28;20470;-82
2023/08/28 04:57:41;;;;;;;3.53;1.70;;;;;;;;;;5080207;28;20048;-82
2023/08/28 05:00:07;;;;;;;2.75;1.67;;;;;;;;;;5091154;28;20033;-83
2023/08/28 05:02:33;;;;;;;3.22;1.80;;;;;;;;;;5086172;28;20085;-82
2023/08/28 05:04:58;;;;;;;3.42;1.83;;;;;;;;;;5088038;28;20028;-82
2023/08/28 05:07:23;;;;;;;2.97;1.92;;;;;;;;;;5082297;28;20063;-82
2023/08/28 05:09:49;;;;;;;2.95;1.60;;;;;;;;;;5077768;28;20036;-81
2023/08/28 05:12:14;;;;;;;2.40;1.85;;;;;;;;;;5093747;28;20036;-82
2023/08/28 05:14:40;;;;;;;1.90;1.50;;;;;;;;;;5078197;28;20016;-83
2023/08/28 05:17:06;;;;;;;3.42;1.80;;;;;;;;;;5080296;28;20109;-83
2023/08/28 05:19:31;;;;;;;3.33;2.08;;;;;;;;;;5087116;28;20115;-82
2023/08/28 05:21:58;;;;;;;3.38;1.90;;;;;;;;;;5084395;28;20097;-81
2023/08/28 05:24:24;;;;;;;3.58;1.58;;;;;;;;;;5078782;28;20032;-82
2023/08/28 05:26:50;;;;;;;2.65;1.73;;;;;;;;;;5090445;28;20035;-81
2023/08/28 05:29:15;;;;;;;2.05;1.70;;;;;;;;;;5082542;28;20511;-81
2023/08/28 05:31:41;;;;;;;2.58;1.75;;;;;;;;;;5093761;28;20481;-82
2023/08/28 05:34:08;;;;;;;3.10;1.83;;;;;;;;;;5080537;28;20025;-82
2023/08/28 05:36:34;;;;;;;2.67;1.90;;;;;;;;;;5095250;28;20490;-82
2023/08/28 05:38:59;;;;;;;4.93;2.03;;;;;;;;;;5079184;28;20120;-82
2023/08/28 05:41:25;;;;;;;3.85;2.00;;;;;;;;;;5081211;28;20528;-82
2023/08/28 05:43:50;;;;;;;3.47;2.30;;;;;;;;;;5083966;28;20024;-81
2023/08/28 05:46:16;;;;;;;3.40;2.25;;;;;;;;;;5091206;28;20025;-81
2023/08/28 05:48:41;;;;;;;3.50;2.08;;;;;;;;;;5084249;28;20067;-84
2023/08/28 05:51:07;;;;;;;1.83;1.30;;;;;;;;;;5078119;28;20035;-83
2023/08/28 05:53:32;;;;;;;3.42;2.15;;;;;;;;;;5087553;28;20615;-82
2023/08/28 05:55:58;;;;;;;3.53;2.10;;;;;;;;;;5086038;28;20031;-81
2023/08/28 05:58:23;;;;;;;3.17;2.20;;;;;;;;;;5086476;28;20097;-82
2023/08/28 06:00:49;;;;;;;2.88;2.15;;;;;;;;;;5089962;28;20039;-80
2023/08/28 06:03:14;;;;;;;2.90;2.00;;;;;;;;;;5089257;28;20037;-82
2023/08/28 06:05:40;;;;;;;7.45;2.72;;;;;;;;;;5089229;28;20036;-81
2023/08/28 06:08:05;;;;;;;2.30;1.80;;;;;;;;;;5087010;28;20097;-81
2023/08/28 06:10:31;;;;;;;4.18;1.90;;;;;;;;;;5088946;28;20024;-81
2023/08/28 06:12:57;;;;;;;3.65;1.95;;;;;;;;;;5074267;28;20032;-82
2023/08/28 06:15:23;;;;;;;1.75;1.40;;;;;;;;;;5079179;28;20032;-81
2023/08/28 06:17:53;;;;;;;2.25;1.40;;;;;;;;;;5083206;28;20040;-81
2023/08/28 06:20:19;;;;;;;3.15;1.80;;;;;;;;;;5084501;28;20047;-81
2023/08/28 06:22:44;;;;;;;2.85;1.85;;;;;;;;;;5086907;28;20024;-82
2023/08/28 06:25:11;;;;;;;2.55;1.38;;;;;;;;;;5085129;28;20039;-83
2023/08/28 06:27:38;;;;;;;8.50;6.10;;;;;;;;;;5078651;28;20028;-81
2023/08/28 06:30:05;;;;;;;9.38;6.90;;;;;;;;;;5065682;28;20059;-82
2023/08/28 06:32:32;;;;;;;3.55;2.33;;;;;;;;;;5078618;28;20024;-83
2023/08/28 06:34:59;;;;;;;2.70;1.95;;;;;;;;;;5073323;28;20021;-81
2023/08/28 06:37:25;;;;;;;2.03;1.67;;;;;;;;;;5075423;28;20047;-83
2023/08/28 06:39:52;;;;;;;2.63;1.40;;;;;;;;;;5090040;28;20028;-82
2023/08/28 06:42:17;;;;;;;2.53;1.27;;;;;;;;;;5083533;28;20083;-84
2023/08/28 06:44:43;;;;;;;1.77;1.30;;;;;;;;;;5086895;28;20032;-85
2023/08/28 06:47:08;;;;;;;1.90;1.23;;;;;;;;;;5083097;28;20045;-84
2023/08/28 06:49:34;;;;;;;2.22;1.20;;;;;;;;;;5075207;28;20048;-82
2023/08/28 06:51:59;;;;;;;2.97;1.27;;;;;;;;;;5083931;28;20115;-83
2023/08/28 06:54:25;;;;;;;2.10;1.33;;;;;;;;;;5085834;28;20474;-82
2023/08/28 06:56:51;;;;;;;2.47;1.33;;;;;;;;;;5076322;28;20101;-84
2023/08/28 06:59:17;;;;;;;4.22;2.17;;;;;;;;;;5087157;28;20108;-83
2023/08/28 07:01:43;;;;;;;3.17;1.80;;;;;;;;;;5084255;28;20111;-83
2023/08/28 07:04:09;;;;;;;2.55;1.40;;;;;;;;;;5097399;28;20107;-83
2023/08/28 07:06:34;;;;;;;4.20;1.60;;;;;;;;;;5077563;28;20577;-83
2023/08/28 07:08:59;;;;;;;1.80;1.30;;;;;;;;;;5072346;28;20033;-83
2023/08/28 07:11:25;;;;;;;1.67;1.00;;;;;;;;;;5086657;28;20687;-83
2023/08/28 07:13:50;;;;;;;1.98;1.25;;;;;;;;;;5084504;28;20056;-81
2023/08/28 07:16:16;;;;;;;1.13;0.88;;;;;;;;;;5078807;28;20028;-81
2023/08/28 07:18:43;;;;;;;1.45;0.95;;;;;;;;;;5073236;28;20036;-82
2023/08/28 07:21:09;;;;;;;1.58;1.00;;;;;;;;;;5088260;28;20040;-81
2023/08/28 07:23:36;;;;;;;2.03;1.10;;;;;;;;;;5072552;28;20055;-80
2023/08/28 07:26:03;;;;;;;3.05;1.10;;;;;;;;;;5079020;28;20039;-84
2023/08/28 07:28:29;;;;;;;1.58;0.90;;;;;;;;;;5085145;28;20047;-82
2023/08/28 07:30:58;;;;;;;1.20;1.00;;;;;;;;;;5091197;28;20051;-83
2023/08/28 07:33:23;;;;;;;1.30;1.00;;;;;;;;;;5074255;28;20043;-82
2023/08/28 07:35:49;;;;;;;4.90;1.42;;;;;;;;;;5079209;28;20032;-82
2023/08/28 07:38:15;;;;;;;2.55;0.68;;;;;;;;;;5093299;28;20393;-83
2023/08/28 07:40:41;;;;;;;3.03;2.05;;;;;;;;;;5078907;28;20113;-84
2023/08/28 07:43:06;;;;;;;1.40;1.13;;;;;;;;;;5077241;28;20032;-83
2023/08/28 07:45:32;;;;;;;1.52;0.77;;;;;;;;;;5071067;28;20029;-82
2023/08/28 07:47:59;;;;;;;0.45;0.40;;;;;;;;;;5084602;28;20031;-82
2023/08/28 07:50:24;;;;;;;1.42;0.90;;;;;;;;;;5096131;28;20559;-83
2023/08/28 07:52:50;;;;;;;0.70;0.70;;;;;;;;;;5077587;28;20068;-82
2023/08/28 07:55:15;;;;;;;0.95;0.80;;;;;;;;;;5073747;28;20107;-83
2023/08/28 07:57:40;;;;;;;0.98;0.88;;;;;;;;;;5071374;28;20028;-83
2023/08/28 08:00:09;;;;;;;1.55;1.10;;;;;;;;;;5080777;28;20039;-82
2023/08/28 08:02:38;;;;;;;1.42;0.98;;;;;;;;;;5080920;28;20032;-83
2023/08/28 08:05:04;;;;;;;0.70;0.70;;;;;;;;;;5084214;28;20040;-83
2023/08/28 08:07:29;;;;;;;1.77;0.80;;;;;;;;;;5083038;28;20063;-83
2023/08/28 08:09:56;;;;;;;0.63;0.60;;;;;;;;;;5078411;28;20059;-82
2023/08/28 08:12:21;;;;;;;0.75;0.70;;;;;;;;;;5084257;28;20079;-83
2023/08/28 08:14:47;;;;;;;0.82;0.80;;;;;;;;;;5080663;28;20033;-84
2023/08/28 08:17:12;;;;;;;0.80;0.70;;;;;;;;;;5075394;28;20478;-82
2023/08/28 08:19:38;;;;;;;0.95;0.70;;;;;;;;;;5075817;28;20058;-82
2023/08/28 08:22:04;;;;;;;0.80;0.70;;;;;;;;;;5075346;28;20044;-83
2023/08/28 08:24:30;;;;;;;0.52;0.50;;;;;;;;;;5078125;28;20024;-84
2023/08/28 08:26:56;;;;;;;0.57;0.52;;;;;;;;;;5081236;28;20039;-84
2023/08/28 08:29:22;;;;;;;0.55;0.55;;;;;;;;;;5082783;28;20040;-82
2023/08/28 08:31:48;;;;;;;1.33;0.50;;;;;;;;;;5066715;28;20024;-82
2023/08/28 08:34:13;;;;;;;0.70;0.70;;;;;;;;;;5074041;28;20028;-83
2023/08/28 08:36:39;;;;;;;0.52;0.52;;;;;;;;;;5081336;28;20489;-83
2023/08/28 08:39:05;;;;;;;1.95;0.60;;;;;;;;;;5086598;28;20377;-82
2023/08/28 08:41:30;;;;;;;2.58;0.65;;;;;;;;;;5082118;28;20377;-82
2023/08/28 08:43:56;;;;;;;0.77;0.55;;;;;;;;;;5074826;28;20799;-82
2023/08/28 08:46:22;;;;;;;0.43;0.43;;;;;;;;;;5077060;28;20048;-83
2023/08/28 08:48:49;;;;;;;0.65;0.60;;;;;;;;;;5081321;28;20046;-84
2023/08/28 08:51:20;;;;;;;1.08;0.40;;;;;;;;;;5081811;28;20067;-82
2023/08/28 08:53:48;;;;;;;0.43;0.43;;;;;;;;;;5076491;28;20115;-83
2023/08/28 08:56:17;;;;;;;0.30;0.30;;;;;;;;;;5084410;28;20028;-83
2023/08/28 08:58:43;;;;;;;0.70;0.50;;;;;;;;;;5079878;28;20473;-82
2023/08/28 09:01:09;;;;;;;1.10;0.50;;;;;;;;;;5084838;28;20170;-83
2023/08/28 09:03:35;;;;;;;1.25;0.60;;;;;;;;;;5080742;28;20047;-82
2023/08/28 09:06:01;;;;;;;1.17;0.30;;;;;;;;;;5076366;28;20020;-82
2023/08/28 09:08:28;;;;;;;0.63;0.40;;;;;;;;;;5077782;28;20086;-83
2023/08/28 09:10:59;;;;;;;1.83;0.57;;;;;;;;;;5088069;28;20114;-82
2023/08/28 09:13:25;;;;;;;0.40;0.40;;;;;;;;;;5081840;28;20028;-84
2023/08/28 09:15:50;;;;;;;0.65;0.50;;;;;;;;;;5090146;28;20427;-83
2023/08/28 09:18:17;;;;;;;0.57;0.57;;;;;;;;;;5073490;28;20029;-84
2023/08/28 09:20:42;;;;;;;1.30;0.60;;;;;;;;;;5089890;28;20062;-84
2023/08/28 09:23:08;;;;;;;0.68;0.60;;;;;;;;;;5084926;28;20043;-82
2023/08/28 09:25:34;;;;;;;0.60;0.60;;;;;;;;;;5079437;28;20024;-84
2023/08/28 09:28:00;;;;;;;0.60;0.60;;;;;;;;;;5077355;28;20028;-84
2023/08/28 09:30:38;;;;;;;0.80;0.52;;;;;;;;;;5092094;28;20524;-82
2023/08/28 09:33:06;;;;;;;0.63;0.63;;;;;;;;;;5082959;28;20481;-83
2023/08/28 09:35:37;;;;;;;1.25;0.70;;;;;;;;;;5080033;28;20430;-84
2023/08/28 09:38:03;;;;;;;1.10;0.70;;;;;;;;;;5085320;28;20023;-83
2023/08/28 09:40:33;;;;;;;1.15;0.75;;;;;;;;;;5077348;28;20071;-83
2023/08/28 09:43:00;;;;;;;0.70;0.70;;;;;;;;;;5073958;28;20044;-83
2023/08/28 09:45:32;;;;;;;1.45;0.80;;;;;;;;;;5077394;28;20082;-87
2023/08/28 09:47:58;;;;;;;2.27;0.80;;;;;;;;;;5093429;28;20060;-81
2023/08/28 09:50:31;;;;;;;1.95;0.43;;;;;;;;;;5081687;28;20470;-82
2023/08/28 09:53:09;;;;;;;0.55;0.52;;;;;;;;;;5080331;28;20033;-82
2023/08/28 09:55:53;;;;;;;0.90;0.70;;;;;;;;;;5075679;28;20043;-82
2023/08/28 09:58:23;;;;;;;0.88;0.80;;;;;;;;;;5081705;28;20028;-82
2023/08/28 10:00:50;;;;;;;1.88;1.10;;;;;;;;;;5081852;28;20089;-82
2023/08/28 10:03:16;;;;;;;0.73;0.70;;;;;;;;;;5078877;28;20035;-84
2023/08/28 10:05:44;;;;;;;0.70;0.70;;;;;;;;;;5076964;28;20048;-83
2023/08/28 10:08:10;;;;;;;0.90;0.70;;;;;;;;;;5077692;28;20077;-83
2023/08/28 10:10:38;;;;;;;1.05;0.70;;;;;;;;;;5084931;28;20024;-83
2023/08/28 10:13:13;;;;;;;1.10;0.80;;;;;;;;;;5097788;28;20032;-82
2023/08/28 10:15:51;;;;;;;1.10;0.85;;;;;;;;;;5078187;28;20444;-83
2023/08/28 10:18:41;;;;;;;1.20;0.80;;;;;;;;;;5089315;28;20035;-82
2023/08/28 10:21:07;;;;;;;0.80;0.80;;;;;;;;;;5086897;28;20537;-83
2023/08/28 10:23:34;;;;;;;0.85;0.70;;;;;;;;;;5095302;28;20106;-82
2023/08/28 10:26:02;;;;;;;0.75;0.50;;;;;;;;;;5076751;28;20036;-82
2023/08/28 10:28:29;;;;;;;0.70;0.60;;;;;;;;;;5074701;28;20493;-82
2023/08/28 10:30:56;;;;;;;0.63;0.60;;;;;;;;;;5074137;28;20028;-84
2023/08/28 10:33:22;;;;;;;0.73;0.70;;;;;;;;;;5093334;28;20039;-82
2023/08/28 10:35:51;;;;;;;1.00;0.80;;;;;;;;;;5082208;28;20370;-82
2023/08/28 10:38:20;;;;;;;0.80;0.70;;;;;;;;;;5080367;28;20310;-82
2023/08/28 10:40:55;;;;;;;1.77;0.60;;;;;;;;;;5072083;28;20482;-82
2023/08/28 10:43:23;;;;;;;0.70;0.60;;;;;;;;;;5096070;28;20024;-83
2023/08/28 10:45:51;;;;;;;0.77;0.60;;;;;;;;;;5084553;28;20028;-83
2023/08/28 10:48:17;;;;;;;1.13;0.70;;;;;;;;;;5075691;28;20518;-82
2023/08/28 10:50:42;;;;;;;0.82;0.50;;;;;;;;;;5074982;28;20024;-83
2023/08/28 10:53:15;;;;;;;0.90;0.40;;;;;;;;;;5071928;28;20109;-83
2023/08/28 10:55:59;;;;;;;0.77;0.60;;;;;;;;;;5075775;28;20386;-83
2023/08/28 10:58:29;;;;;;;0.75;0.60;;;;;;;;;;5081143;28;20317;-83
2023/08/28 11:01:09;;;;;;;0.77;0.70;;;;;;;;;;5081579;28;20528;-83
2023/08/28 11:03:50;;;;;;;0.82;0.60;;;;;;;;;;5078137;28;20064;-83
2023/08/28 11:06:45;;;;;;;0.50;0.50;;;;;;;;;;5088623;28;20036;-84
2023/08/28 11:09:26;;;;;;;0.50;0.50;;;;;;;;;;5074951;28;20131;-83
2023/08/28 11:11:52;;;;;;;0.80;0.50;;;;;;;;;;5073761;28;20036;-83
2023/08/28 11:14:17;;;;;;;0.40;0.40;;;;;;;;;;5085574;28;20131;-84
2023/08/28 11:16:43;;;;;;;0.40;0.40;;;;;;;;;;5072087;28;20459;-84
2023/08/28 11:19:09;;;;;;;0.50;0.35;;;;;;;;;;5084643;28;20044;-84
2023/08/28 11:21:44;;;;;;;0.80;0.50;;;;;;;;;;5088193;28;20039;-84
2023/08/28 11:24:23;;;;;;;0.70;0.50;;;;;;;;;;5077170;28;20040;-84
2023/08/28 11:26:48;;;;;;;0.82;0.52;;;;;;;;;;5075128;28;20493;-84
2023/08/28 11:29:32;;;;;;;0.38;0.38;;;;;;;;;;5073937;28;20031;-86
2023/08/28 11:31:58;;;;;;;0.40;0.40;;;;;;;;;;5079425;28;20120;-81
2023/08/28 11:34:24;;;;;;;0.50;0.50;;;;;;;;;;5078217;28;20765;-82
2023/08/28 11:36:49;;;;;;;0.80;0.50;;;;;;;;;;5088872;28;20031;-83
2023/08/28 11:39:22;;;;;;;0.50;0.45;;;;;;;;;;5073832;28;20413;-83
2023/08/28 11:41:49;;;;;;;0.40;0.40;;;;;;;;;;5075139;28;20445;-83
2023/08/28 11:44:15;;;;;;;0.68;0.50;;;;;;;;;;5095065;28;20075;-84
2023/08/28 11:46:41;;;;;;;0.50;0.50;;;;;;;;;;5081275;28;20059;-83
2023/08/28 11:49:07;;;;;;;0.60;0.60;;;;;;;;;;5076178;28;20478;-83
2023/08/28 11:51:33;;;;;;;1.05;0.70;;;;;;;;;;5077304;28;20040;-83
2023/08/28 11:53:59;;;;;;;2.60;0.90;;;;;;;;;;5075712;28;20473;-83
2023/08/28 11:56:24;;;;;;;1.08;0.93;;;;;;;;;;5088363;28;20036;-83
2023/08/28 11:58:53;;;;;;;0.95;0.90;;;;;;;;;;5079052;28;20055;-83
2023/08/28 12:01:19;;;;;;;0.82;0.80;;;;;;;;;;5076342;28;20020;-82
2023/08/28 12:03:45;;;;;;;1.83;1.00;;;;;;;;;;5072456;28;20051;-84
2023/08/28 12:06:12;;;;;;;2.05;1.10;;;;;;;;;;5089825;28;20047;-84
2023/08/28 12:08:42;;;;;;;1.10;1.00;;;;;;;;;;5082749;28;20074;-84
2023/08/28 12:11:10;;;;;;;1.67;0.95;;;;;;;;;;5081566;28;20042;-83
2023/08/28 12:13:36;;;;;;;1.67;1.00;;;;;;;;;;5076415;28;20158;-83
2023/08/28 12:16:14;;;;;;;1.10;1.00;;;;;;;;;;5076030;28;20028;-83
2023/08/28 12:18:48;;;;;;;2.88;1.23;;;;;;;;;;5086214;28;20028;-82
2023/08/28 12:21:16;;;;;;;2.17;0.90;;;;;;;;;;5083265;28;20032;-83
2023/08/28 12:23:53;;;;;;;3.33;1.08;;;;;;;;;;5079641;28;20055;-83
2023/08/28 12:26:21;;;;;;;1.00;0.90;;;;;;;;;;5089677;28;20041;-82
2023/08/28 12:28:47;;;;;;;1.02;0.80;;;;;;;;;;5086454;28;20048;-83
2023/08/28 12:31:13;;;;;;;1.05;0.95;;;;;;;;;;5080914;28;20033;-83
2023/08/28 12:33:40;;;;;;;1.45;0.90;;;;;;;;;;5079660;28;20068;-83
2023/08/28 12:36:06;;;;;;;1.13;0.80;;;;;;;;;;5080121;28;20478;-82
2023/08/28 12:38:46;;;;;;;1.42;0.90;;;;;;;;;;5075037;28;20047;-83
2023/08/28 12:41:13;;;;;;;1.42;0.90;;;;;;;;;;5079500;28;20111;-82
2023/08/28 12:43:38;;;;;;;1.45;0.70;;;;;;;;;;5084470;28;20078;-81
2023/08/28 12:46:04;;;;;;;0.88;0.80;;;;;;;;;;5079018;28;20524;-81
2023/08/28 12:48:29;;;;;;;0.98;0.80;;;;;;;;;;5074365;28;20040;-81
2023/08/28 12:50:55;;;;;;;1.00;0.80;;;;;;;;;;5084444;28;20152;-81
2023/08/28 12:53:20;;;;;;;0.75;0.70;;;;;;;;;;5086250;28;20042;-82
2023/08/28 12:55:46;;;;;;;1.70;0.82;;;;;;;;;;5081299;28;20071;-82
2023/08/28 12:58:11;;;;;;;0.73;0.73;;;;;;;;;;5077306;28;20127;-82
2023/08/28 13:00:37;;;;;;;0.70;0.70;;;;;;;;;;5075579;28;20037;-81
2023/08/28 13:03:03;;;;;;;1.15;0.65;;;;;;;;;;5078470;28;20519;-84
2023/08/28 13:05:29;;;;;;;1.33;0.77;;;;;;;;;;5087792;28;20040;-82
2023/08/28 13:07:54;;;;;;;1.10;0.70;;;;;;;;;;5083548;28;20124;-82
2023/08/28 13:10:20;;;;;;;0.98;0.70;;;;;;;;;;5078456;28;20498;-82
2023/08/28 13:12:45;;;;;;;0.85;0.80;;;;;;;;;;5076592;28;20119;-84
2023/08/28 13:15:11;;;;;;;1.33;0.80;;;;;;;;;;5079931;28;20552;-82
2023/08/28 13:17:42;;;;;;;0.68;0.50;;;;;;;;;;5084135;28;20090;-83
2023/08/28 13:20:09;;;;;;;1.10;0.70;;;;;;;;;;5079731;28;20478;-82
2023/08/28 13:22:34;;;;;;;1.70;0.70;;;;;;;;;;5077068;28;20170;-82
2023/08/28 13:25:00;;;;;;;0.65;0.60;;;;;;;;;;5092542;28;20135;-84
2023/08/28 13:27:26;;;;;;;0.63;0.50;;;;;;;;;;5093140;28;20028;-84
2023/08/28 13:29:52;;;;;;;0.60;0.60;;;;;;;;;;5083722;28;20037;-84
2023/08/28 13:32:17;;;;;;;0.52;0.43;;;;;;;;;;5096666;28;20063;-84
2023/08/28 13:34:42;;;;;;;0.82;0.60;;;;;;;;;;5078121;28;20090;-84
2023/08/28 13:37:08;;;;;;;1.40;0.90;;;;;;;;;;5078867;28;20036;-84
2023/08/28 13:39:33;;;;;;;0.68;0.60;;;;;;;;;;5085558;28;20044;-84
2023/08/28 13:41:59;;;;;;;1.05;0.77;;;;;;;;;;5083561;28;20089;-83
2023/08/28 13:44:24;;;;;;;0.60;0.60;;;;;;;;;;5078007;28;20045;-83
2023/08/28 13:46:50;;;;;;;7.28;4.57;;;;;;;;;;5075054;28;20040;-83
2023/08/28 13:49:16;;;;;;;3.83;2.72;;;;;;;;;;5092838;28;20038;-81
2023/08/28 13:51:42;;;;;;;2.63;1.80;;;;;;;;;;5083614;28;20046;-81
2023/08/28 13:54:08;;;;;;;2.90;1.17;;;;;;;;;;5078094;28;20498;-81
2023/08/28 13:56:34;;;;;;;1.20;1.10;;;;;;;;;;5074756;28;20039;-81
2023/08/28 13:58:59;;;;;;;1.75;1.13;;;;;;;;;;5088491;28;20439;-81
2023/08/28 14:01:24;;;;;;;0.95;0.52;;;;;;;;;;5082857;28;20055;-81
2023/08/28 14:03:51;;;;;;;1.63;0.50;;;;;;;;;;5077814;28;20032;-81
2023/08/28 14:06:16;;;;;;;0.60;0.35;;;;;;;;;;5077909;28;20029;-81
2023/08/28 14:08:42;;;;;;;0.77;0.40;;;;;;;;;;5077734;28;20474;-84
2023/08/28 14:11:09;;;;;;;0.30;0.30;;;;;;;;;;5087034;28;20039;-81
2023/08/28 14:13:36;;;;;;;0.70;0.55;;;;;;;;;;5083405;28;20039;-81
2023/08/28 14:16:03;;;;;;;1.48;0.40;;;;;;;;;;5079370;28;20122;-81
2023/08/28 14:18:32;;;;;;;0.70;0.50;;;;;;;;;;5074627;28;20033;-82
2023/08/28 14:20:57;;;;;;;2.13;0.50;;;;;;;;;;5073214;28;20521;-82
2023/08/28 14:23:23;;;;;;;1.02;0.50;;;;;;;;;;5081191;28;20035;-82
2023/08/28 14:25:49;;;;;;;0.85;0.40;;;;;;;;;;5089011;28;20043;-82
2023/08/28 14:28:17;;;;;;;0.38;0.38;;;;;;;;;;5072054;28;20464;-81
2023/08/28 14:30:43;;;;;;;0.32;0.32;;;;;;;;;;5076328;28;20036;-81
2023/08/28 14:33:10;;;;;;;0.93;0.38;;;;;;;;;;5073897;28;20037;-82
2023/08/28 14:35:41;;;;;;;0.40;0.40;;;;;;;;;;5081367;28;20039;-82
2023/08/28 14:38:07;;;;;;;0.68;0.50;;;;;;;;;;5086308;28;20039;-82
2023/08/28 14:40:33;;;;;;;1.38;0.55;;;;;;;;;;5078693;28;20032;-83
2023/08/28 14:42:59;;;;;;;0.50;0.45;;;;;;;;;;5082135;28;20036;-82